createdAt,value
2019-01-16T00:00:13.764Z,1000.18
2019-01-16T00:01:13.755Z,1000.19
2019-01-16T00:02:13.743Z,1000.19
2019-01-16T00:03:13.733Z,1000.20
2019-01-16T00:04:13.724Z,1000.23
2019-01-16T00:05:13.725Z,1000.19
2019-01-16T00:06:13.700Z,1000.12
2019-01-16T00:07:13.690Z,1000.13
2019-01-16T00:08:13.682Z,1000.14
2019-01-16T00:09:13.668Z,1000.14
2019-01-16T00:10:13.676Z,1000.09
2019-01-16T00:11:13.649Z,1000.06
2019-01-16T00:12:13.638Z,1000.09
2019-01-16T00:13:13.628Z,1000.08
2019-01-16T00:14:13.615Z,1000.14
2019-01-16T00:15:13.644Z,1000.09
2019-01-16T00:16:13.597Z,1000.18
2019-01-16T00:17:13.585Z,1000.05
2019-01-16T00:18:17.142Z,1000.08
2019-01-16T00:19:13.564Z,1000.14
2019-01-16T00:20:13.550Z,1000.08
2019-01-16T00:21:13.557Z,999.98
2019-01-16T00:22:13.532Z,1000.01
2019-01-16T00:23:13.522Z,999.95
2019-01-16T00:24:13.512Z,999.94
2019-01-16T00:25:13.514Z,999.98
2019-01-16T00:26:13.504Z,999.96
2019-01-16T00:27:13.476Z,1000.04
2019-01-16T00:28:13.468Z,1000.01
2019-01-16T00:29:13.455Z,999.94
2019-01-16T00:30:13.445Z,999.91
2019-01-16T00:31:13.450Z,999.93
2019-01-16T00:32:13.420Z,999.95
2019-01-16T00:33:13.415Z,999.98
2019-01-16T00:34:13.403Z,1000.02
2019-01-16T00:35:13.393Z,1000.06
2019-01-16T00:36:13.416Z,999.97
2019-01-16T00:37:13.369Z,1000.04
2019-01-16T00:38:13.358Z,1000.05
2019-01-16T00:39:13.348Z,1000.08
2019-01-16T00:40:13.338Z,1000.01
2019-01-16T00:41:13.328Z,1000.03
2019-01-16T00:42:13.331Z,1000.01
2019-01-16T00:43:13.321Z,999.99
2019-01-16T00:44:13.294Z,999.98
2019-01-16T00:45:13.284Z,999.91
2019-01-16T00:46:13.339Z,999.99
2019-01-16T00:47:13.264Z,999.89
2019-01-16T00:48:13.266Z,999.85
2019-01-16T00:49:13.243Z,999.84
2019-01-16T00:50:13.233Z,999.84
2019-01-16T00:51:13.245Z,999.89
2019-01-16T00:52:13.211Z,999.81
2019-01-16T00:53:13.201Z,999.77
2019-01-16T00:54:13.189Z,999.87
2019-01-16T00:55:13.179Z,999.89
2019-01-16T00:56:13.167Z,999.80
2019-01-16T00:57:13.197Z,999.85
2019-01-16T00:58:13.147Z,999.85
2019-01-16T00:59:13.134Z,999.75
2019-01-16T01:00:13.125Z,999.79
2019-01-16T01:01:13.115Z,999.82
2019-01-16T01:02:13.102Z,999.73
2019-01-16T01:03:13.109Z,999.80
2019-01-16T01:04:13.097Z,999.74
2019-01-16T01:05:13.071Z,999.80
2019-01-16T01:06:13.063Z,999.85
2019-01-16T01:07:13.051Z,999.80
2019-01-16T01:08:13.041Z,999.80
2019-01-16T01:09:13.050Z,999.79
2019-01-16T01:10:13.019Z,999.80
2019-01-16T01:11:13.005Z,999.79
2019-01-16T01:12:12.997Z,999.78
2019-01-16T01:13:12.985Z,999.78
2019-01-16T01:14:12.974Z,999.78
2019-01-16T01:15:12.979Z,999.76
2019-01-16T01:16:12.953Z,999.68
2019-01-16T01:17:12.942Z,999.69
2019-01-16T01:18:12.934Z,999.70
2019-01-16T01:19:12.924Z,999.70
2019-01-16T01:20:12.925Z,999.68
2019-01-16T01:21:12.897Z,999.72
2019-01-16T01:22:12.891Z,999.68
2019-01-16T01:23:12.879Z,999.66
2019-01-16T01:24:12.870Z,999.64
2019-01-16T01:25:12.872Z,999.63
2019-01-16T01:26:12.864Z,999.70
2019-01-16T01:27:12.838Z,999.66
2019-01-16T01:28:12.825Z,999.61
2019-01-16T01:29:12.815Z,999.58
2019-01-16T01:30:12.821Z,999.62
2019-01-16T01:31:12.810Z,999.59
2019-01-16T01:32:12.782Z,999.62
2019-01-16T01:33:12.774Z,999.65
2019-01-16T01:34:12.764Z,999.57
2019-01-16T01:35:12.751Z,999.60
2019-01-16T01:36:12.756Z,999.57
2019-01-16T01:37:12.730Z,999.65
2019-01-16T01:38:12.717Z,999.58
2019-01-16T01:39:12.709Z,999.57
2019-01-16T01:40:12.699Z,999.56
2019-01-16T01:41:12.733Z,999.57
2019-01-16T01:42:12.676Z,999.55
2019-01-16T01:43:12.667Z,999.64
2019-01-16T01:44:12.655Z,999.56
2019-01-16T01:45:12.643Z,999.50
2019-01-16T01:46:12.633Z,999.57
2019-01-16T01:47:12.636Z,999.42
2019-01-16T01:48:12.611Z,999.48
2019-01-16T01:49:12.601Z,999.50
2019-01-16T01:50:12.590Z,999.55
2019-01-16T01:51:12.580Z,999.46
2019-01-16T01:52:12.582Z,999.47
2019-01-16T01:53:12.560Z,999.49
2019-01-16T01:54:12.548Z,999.51
2019-01-16T01:55:12.538Z,999.51
2019-01-16T01:56:12.524Z,999.48
2019-01-16T01:57:12.547Z,999.55
2019-01-16T01:58:12.504Z,999.43
2019-01-16T01:59:12.492Z,999.47
2019-01-16T02:00:12.479Z,999.51
2019-01-16T02:01:12.468Z,999.55
2019-01-16T02:02:12.456Z,999.58
2019-01-16T02:03:12.485Z,999.54
2019-01-16T02:04:12.436Z,999.39
2019-01-16T02:05:12.426Z,999.48
2019-01-16T02:06:12.413Z,999.54
2019-01-16T02:07:12.405Z,999.52
2019-01-16T02:08:12.394Z,999.46
2019-01-16T02:09:12.423Z,999.62
2019-01-16T02:10:12.369Z,999.54
2019-01-16T02:11:12.358Z,999.57
2019-01-16T02:12:12.348Z,999.57
2019-01-16T02:13:12.336Z,999.51
2019-01-16T02:14:12.328Z,999.55
2019-01-16T02:15:12.348Z,999.51
2019-01-16T02:16:12.305Z,999.52
2019-01-16T02:17:12.294Z,999.57
2019-01-16T02:18:12.283Z,999.66
2019-01-16T02:19:12.274Z,999.55
2019-01-16T02:20:12.263Z,999.48
2019-01-16T02:21:12.268Z,999.51
2019-01-16T02:22:12.239Z,999.51
2019-01-16T02:23:12.234Z,999.53
2019-01-16T02:24:12.222Z,999.48
2019-01-16T02:25:12.249Z,999.42
2019-01-16T02:26:12.199Z,999.46
2019-01-16T02:27:12.186Z,999.42
2019-01-16T02:28:12.176Z,999.36
2019-01-16T02:29:12.166Z,999.35
2019-01-16T02:30:12.170Z,999.43
2019-01-16T02:31:12.165Z,999.40
2019-01-16T02:32:12.136Z,999.36
2019-01-16T02:33:12.124Z,999.37
2019-01-16T02:34:12.111Z,999.39
2019-01-16T02:35:12.100Z,999.35
2019-01-16T02:36:12.117Z,999.31
2019-01-16T02:37:12.078Z,999.32
2019-01-16T02:38:12.072Z,999.30
2019-01-16T02:39:12.058Z,999.27
2019-01-16T02:40:12.063Z,999.31
2019-01-16T02:41:12.037Z,999.33
2019-01-16T02:42:12.027Z,999.23
2019-01-16T02:43:12.016Z,999.34
2019-01-16T02:44:12.006Z,999.32
2019-01-16T02:45:12.012Z,999.24
2019-01-16T02:46:11.981Z,999.24
2019-01-16T02:47:11.973Z,999.33
2019-01-16T02:48:11.961Z,999.27
2019-01-16T02:49:11.955Z,999.24
2019-01-16T02:50:11.958Z,999.25
2019-01-16T02:51:11.932Z,999.33
2019-01-16T02:52:11.935Z,999.27
2019-01-16T02:53:11.922Z,999.25
2019-01-16T02:54:11.899Z,999.28
2019-01-16T02:55:11.921Z,999.26
2019-01-16T02:56:11.879Z,999.21
2019-01-16T02:57:11.865Z,999.23
2019-01-16T02:58:11.853Z,999.25
2019-01-16T02:59:11.845Z,999.20
2019-01-16T03:00:11.838Z,999.20
2019-01-16T03:01:11.848Z,999.12
2019-01-16T03:02:11.811Z,999.11
2019-01-16T03:03:11.799Z,999.16
2019-01-16T03:04:11.789Z,999.12
2019-01-16T03:05:11.782Z,999.09
2019-01-16T03:06:11.770Z,999.09
2019-01-16T03:07:11.796Z,999.07
2019-01-16T03:08:11.745Z,999.03
2019-01-16T03:09:11.736Z,999.00
2019-01-16T03:10:11.730Z,999.01
2019-01-16T03:11:11.717Z,999.07
2019-01-16T03:12:11.707Z,999.03
2019-01-16T03:13:11.732Z,999.00
2019-01-16T03:14:11.681Z,998.99
2019-01-16T03:15:11.672Z,998.96
2019-01-16T03:16:11.664Z,998.98
2019-01-16T03:17:11.653Z,998.92
2019-01-16T03:18:11.640Z,998.89
2019-01-16T03:19:11.648Z,998.91
2019-01-16T03:20:11.618Z,998.97
2019-01-16T03:21:11.607Z,998.94
2019-01-16T03:22:11.632Z,998.90
2019-01-16T03:23:11.587Z,998.94
2019-01-16T03:24:11.578Z,998.92
2019-01-16T03:25:11.569Z,998.87
2019-01-16T03:26:11.564Z,998.84
2019-01-16T03:27:11.545Z,998.87
2019-01-16T03:28:11.549Z,998.87
2019-01-16T03:29:11.527Z,998.86
2019-01-16T03:30:11.515Z,998.81
2019-01-16T03:31:11.555Z,998.68
2019-01-16T03:32:11.500Z,998.75
2019-01-16T03:33:11.484Z,998.77
2019-01-16T03:34:11.472Z,998.72
2019-01-16T03:35:11.461Z,998.78
2019-01-16T03:36:11.448Z,998.72
2019-01-16T03:37:11.454Z,998.80
2019-01-16T03:38:11.426Z,998.70
2019-01-16T03:39:11.418Z,998.63
2019-01-16T03:40:11.422Z,998.66
2019-01-16T03:41:11.394Z,998.68
2019-01-16T03:42:11.422Z,998.68
2019-01-16T03:43:11.371Z,998.62
2019-01-16T03:44:11.362Z,998.68
2019-01-16T03:45:11.355Z,998.63
2019-01-16T03:46:11.349Z,998.69
2019-01-16T03:47:11.338Z,998.65
2019-01-16T03:48:11.341Z,998.66
2019-01-16T03:49:13.753Z,998.60
2019-01-16T03:50:11.302Z,998.58
2019-01-16T03:51:11.288Z,998.59
2019-01-16T03:52:11.279Z,998.58
2019-01-16T03:53:11.282Z,998.55
2019-01-16T03:54:11.257Z,998.59
2019-01-16T03:55:11.247Z,998.57
2019-01-16T03:56:11.236Z,998.56
2019-01-16T03:57:11.226Z,998.60
2019-01-16T03:58:11.231Z,998.57
2019-01-16T03:59:11.217Z,998.57
2019-01-16T04:00:11.192Z,998.57
2019-01-16T04:01:11.182Z,998.48
2019-01-16T04:02:11.170Z,998.49
2019-01-16T04:03:11.178Z,998.50
2019-01-16T04:04:11.149Z,998.44
2019-01-16T04:05:11.137Z,998.49
2019-01-16T04:06:11.128Z,998.51
2019-01-16T04:07:11.120Z,998.45
2019-01-16T04:08:11.145Z,998.58
2019-01-16T04:09:11.099Z,998.44
2019-01-16T04:10:11.087Z,998.39
2019-01-16T04:11:11.077Z,998.55
2019-01-16T04:12:11.063Z,998.47
2019-01-16T04:13:11.055Z,998.41
2019-01-16T04:14:11.062Z,998.46
2019-01-16T04:15:11.075Z,998.40
2019-01-16T04:16:11.021Z,998.37
2019-01-16T04:17:11.010Z,998.41
2019-01-16T04:18:10.999Z,998.43
2019-01-16T04:19:10.991Z,998.37
2019-01-16T04:20:10.980Z,998.33
2019-01-16T04:21:10.994Z,998.37
2019-01-16T04:22:10.963Z,998.28
2019-01-16T04:23:10.965Z,998.28
2019-01-16T04:24:10.939Z,998.32
2019-01-16T04:25:10.925Z,998.25
2019-01-16T04:26:10.922Z,998.31
2019-01-16T04:27:10.922Z,998.29
2019-01-16T04:28:10.895Z,998.30
2019-01-16T04:29:10.886Z,998.30
2019-01-16T04:30:10.876Z,998.31
2019-01-16T04:31:10.879Z,998.26
2019-01-16T04:32:10.888Z,998.27
2019-01-16T04:33:10.840Z,998.26
2019-01-16T04:34:10.831Z,998.23
2019-01-16T04:35:10.818Z,998.18
2019-01-16T04:36:10.810Z,998.23
2019-01-16T04:37:10.799Z,998.23
2019-01-16T04:38:10.801Z,998.27
2019-01-16T04:39:10.778Z,998.15
2019-01-16T04:40:10.765Z,998.05
2019-01-16T04:41:10.758Z,998.10
2019-01-16T04:42:10.779Z,998.19
2019-01-16T04:43:10.733Z,998.13
2019-01-16T04:44:10.725Z,998.02
2019-01-16T04:45:10.712Z,998.10
2019-01-16T04:46:10.702Z,998.09
2019-01-16T04:47:10.693Z,998.04
2019-01-16T04:48:10.697Z,998.08
2019-01-16T04:49:10.670Z,998.07
2019-01-16T04:50:10.657Z,998.13
2019-01-16T04:51:10.651Z,998.10
2019-01-16T04:52:10.637Z,998.08
2019-01-16T04:53:10.642Z,998.04
2019-01-16T04:54:10.618Z,998.05
2019-01-16T04:55:10.603Z,998.06
2019-01-16T04:56:10.594Z,998.02
2019-01-16T04:57:10.583Z,998.08
2019-01-16T04:58:10.602Z,997.93
2019-01-16T04:59:10.564Z,997.91
2019-01-16T05:00:10.553Z,998.01
2019-01-16T05:01:10.541Z,997.99
2019-01-16T05:02:10.529Z,998.00
2019-01-16T05:03:10.521Z,997.96
2019-01-16T05:04:10.526Z,998.02
2019-01-16T05:05:10.497Z,997.95
2019-01-16T05:06:10.503Z,997.92
2019-01-16T05:07:10.478Z,997.94
2019-01-16T05:08:10.465Z,997.96
2019-01-16T05:09:10.458Z,997.95
2019-01-16T05:10:10.480Z,997.95
2019-01-16T05:11:10.435Z,997.93
2019-01-16T05:12:10.425Z,997.99
2019-01-16T05:13:10.416Z,997.96
2019-01-16T05:14:10.403Z,997.81
2019-01-16T05:15:10.390Z,997.90
2019-01-16T05:16:10.404Z,997.93
2019-01-16T05:17:10.372Z,997.95
2019-01-16T05:18:10.361Z,997.95
2019-01-16T05:19:10.352Z,997.86
2019-01-16T05:20:10.340Z,997.90
2019-01-16T05:21:10.330Z,997.86
2019-01-16T05:22:10.335Z,997.89
2019-01-16T05:23:10.308Z,997.82
2019-01-16T05:24:10.298Z,997.80
2019-01-16T05:25:10.286Z,997.78
2019-01-16T05:26:10.276Z,997.84
2019-01-16T05:27:10.282Z,997.80
2019-01-16T05:28:10.254Z,997.80
2019-01-16T05:29:10.244Z,997.79
2019-01-16T05:30:10.232Z,997.78
2019-01-16T05:31:10.223Z,997.76
2019-01-16T05:32:10.246Z,997.83
2019-01-16T05:33:10.203Z,997.79
2019-01-16T05:34:10.190Z,997.59
2019-01-16T05:35:10.177Z,997.78
2019-01-16T05:36:10.170Z,997.76
2019-01-16T05:37:10.161Z,997.75
2019-01-16T05:38:10.166Z,997.77
2019-01-16T05:39:10.134Z,997.57
2019-01-16T05:40:10.130Z,997.64
2019-01-16T05:41:10.113Z,997.72
2019-01-16T05:42:10.104Z,997.78
2019-01-16T05:43:10.108Z,997.63
2019-01-16T05:44:10.084Z,997.61
2019-01-16T05:45:10.073Z,997.65
2019-01-16T05:46:10.063Z,997.67
2019-01-16T05:47:10.049Z,997.62
2019-01-16T05:48:10.051Z,997.66
2019-01-16T05:49:10.049Z,997.62
2019-01-16T05:50:10.033Z,997.60
2019-01-16T05:51:10.006Z,997.57
2019-01-16T05:52:09.997Z,997.65
2019-01-16T05:53:09.988Z,997.56
2019-01-16T05:54:09.977Z,997.71
2019-01-16T05:55:09.965Z,997.62
2019-01-16T05:56:09.972Z,997.54
2019-01-16T05:57:09.942Z,997.52
2019-01-16T05:58:09.932Z,997.57
2019-01-16T05:59:09.924Z,997.59
2019-01-16T06:00:09.981Z,997.59
2019-01-16T06:01:09.901Z,997.58
2019-01-16T06:02:09.892Z,997.51
2019-01-16T06:03:09.881Z,997.52
2019-01-16T06:04:09.870Z,997.55
2019-01-16T06:05:09.858Z,997.58
2019-01-16T06:06:09.860Z,997.48
2019-01-16T06:07:09.843Z,997.50
2019-01-16T06:08:09.841Z,997.47
2019-01-16T06:09:09.817Z,997.54
2019-01-16T06:10:09.810Z,997.48
2019-01-16T06:11:09.833Z,997.49
2019-01-16T06:12:09.784Z,997.54
2019-01-16T06:13:09.777Z,997.51
2019-01-16T06:14:09.763Z,997.51
2019-01-16T06:15:09.774Z,997.49
2019-01-16T06:16:09.762Z,997.47
2019-01-16T06:17:09.731Z,997.54
2019-01-16T06:18:09.719Z,997.49
2019-01-16T06:19:09.710Z,997.49
2019-01-16T06:20:09.703Z,997.47
2019-01-16T06:21:09.685Z,997.48
2019-01-16T06:22:09.690Z,997.50
2019-01-16T06:23:09.665Z,997.44
2019-01-16T06:24:09.682Z,997.40
2019-01-16T06:25:09.646Z,997.46
2019-01-16T06:26:09.636Z,997.37
2019-01-16T06:27:09.625Z,997.44
2019-01-16T06:28:09.612Z,997.45
2019-01-16T06:29:09.603Z,997.41
2019-01-16T06:30:09.603Z,997.39
2019-01-16T06:31:09.582Z,997.45
2019-01-16T06:32:09.595Z,997.45
2019-01-16T06:33:09.561Z,997.41
2019-01-16T06:34:09.551Z,997.43
2019-01-16T06:35:09.540Z,997.41
2019-01-16T06:36:09.529Z,997.38
2019-01-16T06:37:09.516Z,997.47
2019-01-16T06:38:09.519Z,997.43
2019-01-16T06:39:09.495Z,997.43
2019-01-16T06:40:09.522Z,997.43
2019-01-16T06:41:09.476Z,997.46
2019-01-16T06:42:09.466Z,997.47
2019-01-16T06:43:09.492Z,997.46
2019-01-16T06:44:09.445Z,997.46
2019-01-16T06:45:09.493Z,997.43
2019-01-16T06:46:09.423Z,997.40
2019-01-16T06:47:09.413Z,997.50
2019-01-16T06:48:09.399Z,997.54
2019-01-16T06:49:09.405Z,997.46
2019-01-16T06:50:16.315Z,997.54
2019-01-16T06:51:10.365Z,997.48
2019-01-16T06:52:09.359Z,997.61
2019-01-16T06:53:09.348Z,997.45
2019-01-16T06:54:09.352Z,997.57
2019-01-16T06:55:09.340Z,997.55
2019-01-16T06:56:09.315Z,997.59
2019-01-16T06:57:09.305Z,997.48
2019-01-16T06:58:09.295Z,997.51
2019-01-16T06:59:09.319Z,997.50
2019-01-16T07:00:09.273Z,997.58
2019-01-16T07:01:09.266Z,997.56
2019-01-16T07:02:09.252Z,997.51
2019-01-16T07:03:09.242Z,997.53
2019-01-16T07:04:09.229Z,997.49
2019-01-16T07:05:09.261Z,997.51
2019-01-16T07:06:09.209Z,997.52
2019-01-16T07:07:09.201Z,997.50
2019-01-16T07:08:09.191Z,997.55
2019-01-16T07:09:09.179Z,997.47
2019-01-16T07:10:09.165Z,997.54
2019-01-16T07:11:09.196Z,997.33
2019-01-16T07:12:09.146Z,997.40
2019-01-16T07:13:09.140Z,997.52
2019-01-16T07:14:09.124Z,997.37
2019-01-16T07:15:09.113Z,997.36
2019-01-16T07:16:09.104Z,997.37
2019-01-16T07:17:09.107Z,997.39
2019-01-16T07:18:09.086Z,997.44
2019-01-16T07:19:09.074Z,997.30
2019-01-16T07:20:09.921Z,997.39
2019-01-16T07:21:09.051Z,997.29
2019-01-16T07:22:09.051Z,997.35
2019-01-16T07:23:09.045Z,997.37
2019-01-16T07:24:09.024Z,997.47
2019-01-16T07:25:09.008Z,997.50
2019-01-16T07:26:08.996Z,997.38
2019-01-16T07:27:09.001Z,997.42
2019-01-16T07:28:08.975Z,997.49
2019-01-16T07:29:08.966Z,997.52
2019-01-16T07:30:08.972Z,997.50
2019-01-16T07:31:08.941Z,997.48
2019-01-16T07:32:08.932Z,997.49
2019-01-16T07:33:08.984Z,997.48
2019-01-16T07:34:08.911Z,997.44
2019-01-16T07:35:08.904Z,997.48
2019-01-16T07:36:08.892Z,997.49
2019-01-16T07:37:08.879Z,997.53
2019-01-16T07:38:08.887Z,997.40
2019-01-16T07:39:08.861Z,997.33
2019-01-16T07:40:08.848Z,997.34
2019-01-16T07:41:08.835Z,997.36
2019-01-16T07:42:08.824Z,997.39
2019-01-16T07:43:08.834Z,997.40
2019-01-16T07:44:08.804Z,997.39
2019-01-16T07:45:08.796Z,997.40
2019-01-16T07:46:08.782Z,997.34
2019-01-16T07:47:08.777Z,997.37
2019-01-16T07:48:08.765Z,997.50
2019-01-16T07:49:08.767Z,997.48
2019-01-16T07:50:08.738Z,997.47
2019-01-16T07:51:08.729Z,997.47
2019-01-16T07:52:08.720Z,997.57
2019-01-16T07:53:08.709Z,997.49
2019-01-16T07:54:08.711Z,997.50
2019-01-16T07:55:08.689Z,997.43
2019-01-16T07:56:08.694Z,997.57
2019-01-16T07:57:08.665Z,997.52
2019-01-16T07:58:08.656Z,997.45
2019-01-16T07:59:08.644Z,997.58
2019-01-16T08:00:08.666Z,997.51
2019-01-16T08:01:08.622Z,997.56
2019-01-16T08:02:08.615Z,997.51
2019-01-16T08:03:08.608Z,997.53
2019-01-16T08:04:08.592Z,997.48
2019-01-16T08:05:08.584Z,997.55
2019-01-16T08:06:08.587Z,997.51
2019-01-16T08:07:08.561Z,997.51
2019-01-16T08:08:08.548Z,997.55
2019-01-16T08:09:08.537Z,997.55
2019-01-16T08:10:08.535Z,997.50
2019-01-16T08:11:08.541Z,997.50
2019-01-16T08:12:08.507Z,997.52
2019-01-16T08:13:08.497Z,997.49
2019-01-16T08:14:08.485Z,997.53
2019-01-16T08:15:08.473Z,997.52
2019-01-16T08:16:08.481Z,997.50
2019-01-16T08:17:08.467Z,997.55
2019-01-16T08:18:08.445Z,997.52
2019-01-16T08:19:08.442Z,997.50
2019-01-16T08:20:08.420Z,997.52
2019-01-16T08:21:08.410Z,997.50
2019-01-16T08:22:08.434Z,997.52
2019-01-16T08:23:08.389Z,997.51
2019-01-16T08:24:08.379Z,997.45
2019-01-16T08:25:08.368Z,997.53
2019-01-16T08:26:08.354Z,997.52
2019-01-16T08:27:08.347Z,997.59
2019-01-16T08:28:08.350Z,997.42
2019-01-16T08:29:08.320Z,997.44
2019-01-16T08:30:08.314Z,997.41
2019-01-16T08:31:08.305Z,997.45
2019-01-16T08:32:08.294Z,997.38
2019-01-16T08:33:08.304Z,997.42
2019-01-16T08:34:08.271Z,997.38
2019-01-16T08:35:08.261Z,997.42
2019-01-16T08:36:08.250Z,997.33
2019-01-16T08:37:08.240Z,997.45
2019-01-16T08:38:08.227Z,997.43
2019-01-16T08:39:08.234Z,997.45
2019-01-16T08:40:08.222Z,997.40
2019-01-16T08:41:08.192Z,997.41
2019-01-16T08:42:08.186Z,997.33
2019-01-16T08:43:08.171Z,997.35
2019-01-16T08:44:13.685Z,997.34
2019-01-16T08:45:09.149Z,997.34
2019-01-16T08:46:08.143Z,997.33
2019-01-16T08:47:08.146Z,997.33
2019-01-16T08:48:08.118Z,997.29
2019-01-16T08:49:08.123Z,997.28
2019-01-16T08:50:08.098Z,997.31
2019-01-16T08:51:08.102Z,997.31
2019-01-16T08:52:08.080Z,997.35
2019-01-16T08:53:08.067Z,997.29
2019-01-16T08:54:08.056Z,997.35
2019-01-16T08:55:08.045Z,997.30
2019-01-16T08:56:08.045Z,997.34
2019-01-16T08:57:08.021Z,997.20
2019-01-16T08:58:08.013Z,997.26
2019-01-16T08:59:08.017Z,997.32
2019-01-16T09:00:07.992Z,997.23
2019-01-16T09:01:07.981Z,997.19
2019-01-16T09:02:07.987Z,997.14
2019-01-16T09:03:07.976Z,997.18
2019-01-16T09:04:07.949Z,997.19
2019-01-16T09:05:07.938Z,997.13
2019-01-16T09:06:07.927Z,997.23
2019-01-16T09:07:07.928Z,997.14
2019-01-16T09:08:07.902Z,997.12
2019-01-16T09:09:07.909Z,997.10
2019-01-16T09:10:07.881Z,997.02
2019-01-16T09:11:07.871Z,997.13
2019-01-16T09:12:07.861Z,997.22
2019-01-16T09:13:07.890Z,997.12
2019-01-16T09:14:07.840Z,997.07
2019-01-16T09:15:07.829Z,997.10
2019-01-16T09:16:07.816Z,996.94
2019-01-16T09:17:07.810Z,996.93
2019-01-16T09:18:07.799Z,997.00
2019-01-16T09:19:07.797Z,997.06
2019-01-16T09:20:07.793Z,996.92
2019-01-16T09:21:07.763Z,996.91
2019-01-16T09:22:07.756Z,996.94
2019-01-16T09:23:07.770Z,996.91
2019-01-16T09:24:07.733Z,996.82
2019-01-16T09:25:07.720Z,996.78
2019-01-16T09:26:07.710Z,996.85
2019-01-16T09:27:07.699Z,997.01
2019-01-16T09:28:07.690Z,996.84
2019-01-16T09:29:07.691Z,996.76
2019-01-16T09:30:07.668Z,996.83
2019-01-16T09:31:07.657Z,996.82
2019-01-16T09:32:07.648Z,996.93
2019-01-16T09:33:07.637Z,996.79
2019-01-16T09:34:07.645Z,996.82
2019-01-16T09:35:07.615Z,996.79
2019-01-16T09:36:07.602Z,996.85
2019-01-16T09:37:07.596Z,996.83
2019-01-16T09:38:07.579Z,996.76
2019-01-16T09:39:07.570Z,996.90
2019-01-16T09:40:07.578Z,996.85
2019-01-16T09:41:07.550Z,996.93
2019-01-16T09:42:07.540Z,996.79
2019-01-16T09:43:07.527Z,996.89
2019-01-16T09:44:07.515Z,996.89
2019-01-16T09:45:07.521Z,996.78
2019-01-16T09:46:07.491Z,996.85
2019-01-16T09:47:07.484Z,996.88
2019-01-16T09:48:07.470Z,996.92
2019-01-16T09:49:07.461Z,996.73
2019-01-16T09:50:07.482Z,996.85
2019-01-16T09:51:07.437Z,996.74
2019-01-16T09:52:07.427Z,996.92
2019-01-16T09:53:07.419Z,996.76
2019-01-16T09:54:07.407Z,996.74
2019-01-16T09:55:07.395Z,996.80
2019-01-16T09:56:07.395Z,996.77
2019-01-16T09:57:07.372Z,996.80
2019-01-16T09:58:07.367Z,996.74
2019-01-16T09:59:07.352Z,996.76
2019-01-16T10:00:07.341Z,996.72
2019-01-16T10:01:07.347Z,996.78
2019-01-16T10:02:07.314Z,996.65
2019-01-16T10:03:07.309Z,996.67
2019-01-16T10:04:07.295Z,996.66
2019-01-16T10:05:07.305Z,996.74
2019-01-16T10:06:07.292Z,996.74
2019-01-16T10:07:07.280Z,996.62
2019-01-16T10:08:07.254Z,996.70
2019-01-16T10:09:07.241Z,996.68
2019-01-16T10:10:07.231Z,996.61
2019-01-16T10:11:07.236Z,996.56
2019-01-16T10:12:07.229Z,996.62
2019-01-16T10:13:07.199Z,996.62
2019-01-16T10:14:07.186Z,996.62
2019-01-16T10:15:07.179Z,996.55
2019-01-16T10:16:07.186Z,996.51
2019-01-16T10:17:07.159Z,996.56
2019-01-16T10:18:07.142Z,996.56
2019-01-16T10:19:07.132Z,996.58
2019-01-16T10:20:07.122Z,996.47
2019-01-16T10:21:07.112Z,996.56
2019-01-16T10:22:07.113Z,996.53
2019-01-16T10:23:07.091Z,996.57
2019-01-16T10:24:07.090Z,996.48
2019-01-16T10:25:07.070Z,996.53
2019-01-16T10:26:07.056Z,996.51
2019-01-16T10:27:07.042Z,996.62
2019-01-16T10:28:07.036Z,996.60
2019-01-16T10:29:07.039Z,996.37
2019-01-16T10:30:07.014Z,996.37
2019-01-16T10:31:07.001Z,996.47
2019-01-16T10:32:06.989Z,996.30
2019-01-16T10:33:06.980Z,996.35
2019-01-16T10:34:06.996Z,996.34
2019-01-16T10:35:06.956Z,996.33
2019-01-16T10:36:06.946Z,996.33
2019-01-16T10:37:06.934Z,996.30
2019-01-16T10:38:06.923Z,996.20
2019-01-16T10:39:06.912Z,996.23
2019-01-16T10:40:06.921Z,996.19
2019-01-16T10:41:06.893Z,996.19
2019-01-16T10:42:06.880Z,996.20
2019-01-16T10:43:06.870Z,996.18
2019-01-16T10:44:06.857Z,996.18
2019-01-16T10:45:06.850Z,996.24
2019-01-16T10:46:06.851Z,996.15
2019-01-16T10:47:06.826Z,996.10
2019-01-16T10:48:06.815Z,996.23
2019-01-16T10:49:06.804Z,996.14
2019-01-16T10:50:06.793Z,996.08
2019-01-16T10:51:06.801Z,996.10
2019-01-16T10:52:06.773Z,996.17
2019-01-16T10:53:06.761Z,996.12
2019-01-16T10:54:06.749Z,996.07
2019-01-16T10:55:06.737Z,996.03
2019-01-16T10:56:06.731Z,996.26
2019-01-16T10:57:06.737Z,996.05
2019-01-16T10:58:06.706Z,996.03
2019-01-16T10:59:06.696Z,995.98
2019-01-16T11:00:06.682Z,995.96
2019-01-16T11:01:06.672Z,995.90
2019-01-16T11:02:06.677Z,995.87
2019-01-16T11:03:06.651Z,996.11
2019-01-16T11:04:06.639Z,995.89
2019-01-16T11:05:06.630Z,995.90
2019-01-16T11:06:06.618Z,995.97
2019-01-16T11:07:06.626Z,996.16
2019-01-16T11:08:06.598Z,995.91
2019-01-16T11:09:06.583Z,996.00
2019-01-16T11:10:06.576Z,995.90
2019-01-16T11:11:06.846Z,996.03
2019-01-16T11:12:06.551Z,996.08
2019-01-16T11:13:06.557Z,996.02
2019-01-16T11:14:06.543Z,995.97
2019-01-16T11:15:06.517Z,995.93
2019-01-16T11:16:06.510Z,995.92
2019-01-16T11:17:06.516Z,995.98
2019-01-16T11:18:06.485Z,995.81
2019-01-16T11:19:06.509Z,995.87
2019-01-16T11:20:06.464Z,995.79
2019-01-16T11:21:10.982Z,995.83
2019-01-16T11:22:06.455Z,995.77
2019-01-16T11:23:06.435Z,995.83
2019-01-16T11:24:06.423Z,995.79
2019-01-16T11:25:06.426Z,995.73
2019-01-16T11:26:06.397Z,995.67
2019-01-16T11:27:06.390Z,995.74
2019-01-16T11:28:06.376Z,995.66
2019-01-16T11:29:06.367Z,995.73
2019-01-16T11:30:06.366Z,995.68
2019-01-16T11:31:06.348Z,995.71
2019-01-16T11:32:06.332Z,995.85
2019-01-16T11:33:06.324Z,995.64
2019-01-16T11:34:06.313Z,995.66
2019-01-16T11:35:06.316Z,995.62
2019-01-16T11:36:06.308Z,995.60
2019-01-16T11:37:06.281Z,995.56
2019-01-16T11:38:06.271Z,995.59
2019-01-16T11:39:06.260Z,995.60
2019-01-16T11:40:06.247Z,995.58
2019-01-16T11:41:06.269Z,995.63
2019-01-16T11:42:06.228Z,995.55
2019-01-16T11:43:06.216Z,995.53
2019-01-16T11:44:06.206Z,995.47
2019-01-16T11:45:06.196Z,995.48
2019-01-16T11:46:06.184Z,995.41
2019-01-16T11:47:06.189Z,995.56
2019-01-16T11:48:06.163Z,995.52
2019-01-16T11:49:06.158Z,995.45
2019-01-16T11:50:06.147Z,995.45
2019-01-16T11:51:06.130Z,995.33
2019-01-16T11:52:06.119Z,995.38
2019-01-16T11:53:06.122Z,995.30
2019-01-16T11:54:06.096Z,995.47
2019-01-16T11:55:06.087Z,995.31
2019-01-16T11:56:06.074Z,995.27
2019-01-16T11:57:06.063Z,995.33
2019-01-16T11:58:06.063Z,995.28
2019-01-16T11:59:06.039Z,995.27
2019-01-16T12:00:06.030Z,995.36
2019-01-16T12:01:06.018Z,995.33
2019-01-16T12:02:06.023Z,995.27
2019-01-16T12:03:05.999Z,995.17
2019-01-16T12:04:05.986Z,995.21
2019-01-16T12:05:05.989Z,995.26
2019-01-16T12:06:05.968Z,995.22
2019-01-16T12:07:05.972Z,995.18
2019-01-16T12:08:05.944Z,995.13
2019-01-16T12:09:05.930Z,995.12
2019-01-16T12:10:05.919Z,995.22
2019-01-16T12:11:05.938Z,995.14
2019-01-16T12:12:05.897Z,995.10
2019-01-16T12:13:05.891Z,995.10
2019-01-16T12:14:05.879Z,995.22
2019-01-16T12:15:05.868Z,995.04
2019-01-16T12:16:05.853Z,995.00
2019-01-16T12:17:05.887Z,995.13
2019-01-16T12:18:05.836Z,995.06
2019-01-16T12:19:05.824Z,995.05
2019-01-16T12:20:05.814Z,995.03
2019-01-16T12:21:05.818Z,995.05
2019-01-16T12:22:05.790Z,994.97
2019-01-16T12:23:05.781Z,994.96
2019-01-16T12:24:05.767Z,994.97
2019-01-16T12:25:05.759Z,995.09
2019-01-16T12:26:08.299Z,995.04
2019-01-16T12:27:05.737Z,995.01